sensor_id;sensor_type;location;lat;lon;timestamp;P1;durP1;ratioP1;P2;durP2;ratioP2
5622;SDS011;2833;50.432;10.706;2022-09-06T00:00:30;4.60;;;4.20;;
5622;SDS011;2833;50.432;10.706;2022-09-06T00:02:56;8.80;;;4.40;;
5622;SDS011;2833;50.432;10.706;2022-09-06T00:05:21;5.10;;;4.57;;
5622;SDS011;2833;50.432;10.706;2022-09-06T00:07:47;4.93;;;4.50;;
5622;SDS011;2833;50.432;10.706;2022-09-06T00:10:12;5.07;;;4.57;;
5622;SDS011;2833;50.432;10.706;2022-09-06T00:12:37;5.13;;;4.60;;
5622;SDS011;2833;50.432;10.706;2022-09-06T00:15:03;5.00;;;4.53;;
5622;SDS011;2833;50.432;10.706;2022-09-06T00:17:30;4.17;;;3.87;;
5622;SDS011;2833;50.432;10.706;2022-09-06T00:19:55;5.30;;;4.37;;
5622;SDS011;2833;50.432;10.706;2022-09-06T00:22:20;6.07;;;4.40;;
5622;SDS011;2833;50.432;10.706;2022-09-06T00:24:45;5.53;;;4.23;;
5622;SDS011;2833;50.432;10.706;2022-09-06T00:27:10;5.37;;;4.87;;
5622;SDS011;2833;50.432;10.706;2022-09-06T00:29:36;4.97;;;4.50;;
5622;SDS011;2833;50.432;10.706;2022-09-06T00:32:01;4.77;;;4.37;;
5622;SDS011;2833;50.432;10.706;2022-09-06T00:34:26;4.97;;;4.50;;
5622;SDS011;2833;50.432;10.706;2022-09-06T00:36:52;4.80;;;4.40;;
5622;SDS011;2833;50.432;10.706;2022-09-06T00:39:17;4.70;;;4.20;;
5622;SDS011;2833;50.432;10.706;2022-09-06T00:41:42;4.73;;;4.23;;
5622;SDS011;2833;50.432;10.706;2022-09-06T00:44:08;5.63;;;4.30;;
5622;SDS011;2833;50.432;10.706;2022-09-06T00:46:33;5.87;;;4.60;;
5622;SDS011;2833;50.432;10.706;2022-09-06T00:49:04;6.50;;;4.80;;
5622;SDS011;2833;50.432;10.706;2022-09-06T00:51:31;5.13;;;4.50;;
5622;SDS011;2833;50.432;10.706;2022-09-06T00:53:57;4.60;;;4.20;;
5622;SDS011;2833;50.432;10.706;2022-09-06T00:56:25;5.13;;;4.73;;
5622;SDS011;2833;50.432;10.706;2022-09-06T00:58:51;6.00;;;5.30;;
5622;SDS011;2833;50.432;10.706;2022-09-06T01:01:16;5.40;;;4.60;;
5622;SDS011;2833;50.432;10.706;2022-09-06T01:03:41;5.20;;;4.70;;
5622;SDS011;2833;50.432;10.706;2022-09-06T01:16:38;10.50;;;8.07;;
5622;SDS011;2833;50.432;10.706;2022-09-06T01:24:23;15.20;;;10.27;;
5622;SDS011;2833;50.432;10.706;2022-09-06T01:29:38;13.40;;;9.50;;
5622;SDS011;2833;50.432;10.706;2022-09-06T01:32:08;10.77;;;7.87;;
5622;SDS011;2833;50.432;10.706;2022-09-06T01:34:35;11.83;;;7.80;;
5622;SDS011;2833;50.432;10.706;2022-09-06T01:37:02;11.37;;;7.80;;
5622;SDS011;2833;50.432;10.706;2022-09-06T01:39:29;8.73;;;6.40;;
5622;SDS011;2833;50.432;10.706;2022-09-06T01:41:55;6.33;;;5.60;;
5622;SDS011;2833;50.432;10.706;2022-09-06T01:44:21;6.83;;;5.13;;
5622;SDS011;2833;50.432;10.706;2022-09-06T01:46:52;7.00;;;5.00;;
5622;SDS011;2833;50.432;10.706;2022-09-06T01:54:31;6.00;;;4.83;;
5622;SDS011;2833;50.432;10.706;2022-09-06T01:59:30;5.30;;;4.78;;
5622;SDS011;2833;50.432;10.706;2022-09-06T02:02:04;5.00;;;4.60;;
5622;SDS011;2833;50.432;10.706;2022-09-06T02:04:32;6.20;;;4.77;;
5622;SDS011;2833;50.432;10.706;2022-09-06T02:06:59;5.07;;;4.57;;
5622;SDS011;2833;50.432;10.706;2022-09-06T02:09:26;6.90;;;5.20;;
5622;SDS011;2833;50.432;10.706;2022-09-06T02:11:55;10.60;;;4.60;;
5622;SDS011;2833;50.432;10.706;2022-09-06T02:14:26;4.83;;;4.43;;
5622;SDS011;2833;50.432;10.706;2022-09-06T02:16:52;6.20;;;4.80;;
5622;SDS011;2833;50.432;10.706;2022-09-06T02:21:50;5.20;;;4.70;;
5622;SDS011;2833;50.432;10.706;2022-09-06T02:24:22;4.90;;;4.37;;
5622;SDS011;2833;50.432;10.706;2022-09-06T02:26:50;5.20;;;4.70;;
5622;SDS011;2833;50.432;10.706;2022-09-06T02:29:15;4.93;;;4.50;;
5622;SDS011;2833;50.432;10.706;2022-09-06T02:31:46;6.70;;;5.03;;
5622;SDS011;2833;50.432;10.706;2022-09-06T02:34:13;6.33;;;4.57;;
5622;SDS011;2833;50.432;10.706;2022-09-06T02:36:39;5.93;;;4.90;;
5622;SDS011;2833;50.432;10.706;2022-09-06T02:39:04;5.70;;;5.10;;
5622;SDS011;2833;50.432;10.706;2022-09-06T02:41:30;6.43;;;5.23;;
5622;SDS011;2833;50.432;10.706;2022-09-06T02:43:55;5.40;;;4.90;;
5622;SDS011;2833;50.432;10.706;2022-09-06T02:46:21;5.50;;;5.00;;
5622;SDS011;2833;50.432;10.706;2022-09-06T02:48:48;5.07;;;4.57;;
5622;SDS011;2833;50.432;10.706;2022-09-06T02:51:13;5.03;;;4.53;;
5622;SDS011;2833;50.432;10.706;2022-09-06T02:53:38;5.67;;;4.83;;
5622;SDS011;2833;50.432;10.706;2022-09-06T02:56:03;4.90;;;4.50;;
5622;SDS011;2833;50.432;10.706;2022-09-06T02:58:29;5.63;;;5.00;;
5622;SDS011;2833;50.432;10.706;2022-09-06T03:00:54;5.43;;;4.93;;
5622;SDS011;2833;50.432;10.706;2022-09-06T03:03:20;5.73;;;4.73;;
5622;SDS011;2833;50.432;10.706;2022-09-06T03:05:48;6.17;;;5.20;;
5622;SDS011;2833;50.432;10.706;2022-09-06T03:08:14;5.40;;;4.90;;
5622;SDS011;2833;50.432;10.706;2022-09-06T03:10:40;6.07;;;5.33;;
5622;SDS011;2833;50.432;10.706;2022-09-06T03:13:06;5.87;;;5.27;;
5622;SDS011;2833;50.432;10.706;2022-09-06T03:15:31;4.80;;;4.40;;
5622;SDS011;2833;50.432;10.706;2022-09-06T03:17:57;5.27;;;4.77;;
5622;SDS011;2833;50.432;10.706;2022-09-06T03:20:22;6.10;;;5.50;;
5622;SDS011;2833;50.432;10.706;2022-09-06T03:22:47;5.50;;;4.97;;
5622;SDS011;2833;50.432;10.706;2022-09-06T03:25:12;5.47;;;4.97;;
5622;SDS011;2833;50.432;10.706;2022-09-06T03:27:38;6.17;;;5.30;;
5622;SDS011;2833;50.432;10.706;2022-09-06T03:30:04;6.20;;;5.50;;
5622;SDS011;2833;50.432;10.706;2022-09-06T03:32:29;4.90;;;4.50;;
5622;SDS011;2833;50.432;10.706;2022-09-06T03:34:54;11.13;;;5.07;;
5622;SDS011;2833;50.432;10.706;2022-09-06T03:37:20;5.80;;;5.20;;
5622;SDS011;2833;50.432;10.706;2022-09-06T03:39:45;6.10;;;5.07;;
5622;SDS011;2833;50.432;10.706;2022-09-06T03:42:10;5.50;;;5.00;;
5622;SDS011;2833;50.432;10.706;2022-09-06T03:44:35;5.47;;;4.93;;
5622;SDS011;2833;50.432;10.706;2022-09-06T03:47:01;5.40;;;4.90;;
5622;SDS011;2833;50.432;10.706;2022-09-06T03:49:26;5.50;;;5.00;;
5622;SDS011;2833;50.432;10.706;2022-09-06T03:51:52;5.50;;;5.00;;
5622;SDS011;2833;50.432;10.706;2022-09-06T03:54:17;6.30;;;5.43;;
5622;SDS011;2833;50.432;10.706;2022-09-06T03:56:42;5.40;;;4.80;;
5622;SDS011;2833;50.432;10.706;2022-09-06T03:59:07;6.07;;;5.00;;
5622;SDS011;2833;50.432;10.706;2022-09-06T04:01:33;5.70;;;4.60;;
5622;SDS011;2833;50.432;10.706;2022-09-06T04:03:58;5.50;;;5.00;;
5622;SDS011;2833;50.432;10.706;2022-09-06T04:06:25;7.00;;;5.13;;
5622;SDS011;2833;50.432;10.706;2022-09-06T04:08:50;9.53;;;5.20;;
5622;SDS011;2833;50.432;10.706;2022-09-06T04:11:15;6.63;;;5.40;;
5622;SDS011;2833;50.432;10.706;2022-09-06T04:13:40;8.40;;;5.53;;
5622;SDS011;2833;50.432;10.706;2022-09-06T04:16:05;7.03;;;5.27;;
5622;SDS011;2833;50.432;10.706;2022-09-06T04:18:31;7.50;;;5.63;;
5622;SDS011;2833;50.432;10.706;2022-09-06T04:20:56;8.20;;;5.50;;
5622;SDS011;2833;50.432;10.706;2022-09-06T04:23:22;8.57;;;6.00;;
5622;SDS011;2833;50.432;10.706;2022-09-06T04:25:48;8.97;;;5.80;;
5622;SDS011;2833;50.432;10.706;2022-09-06T04:28:14;7.20;;;6.00;;
5622;SDS011;2833;50.432;10.706;2022-09-06T04:30:39;7.50;;;5.90;;
5622;SDS011;2833;50.432;10.706;2022-09-06T04:33:04;8.57;;;6.73;;
5622;SDS011;2833;50.432;10.706;2022-09-06T04:35:29;6.20;;;5.60;;
5622;SDS011;2833;50.432;10.706;2022-09-06T04:37:54;7.00;;;6.00;;
5622;SDS011;2833;50.432;10.706;2022-09-06T04:40:20;7.03;;;6.33;;
5622;SDS011;2833;50.432;10.706;2022-09-06T04:42:45;6.70;;;6.00;;
5622;SDS011;2833;50.432;10.706;2022-09-06T04:45:10;6.73;;;6.10;;
5622;SDS011;2833;50.432;10.706;2022-09-06T04:47:36;8.93;;;7.00;;
5622;SDS011;2833;50.432;10.706;2022-09-06T04:50:01;9.07;;;6.20;;
5622;SDS011;2833;50.432;10.706;2022-09-06T04:52:26;7.43;;;6.70;;
5622;SDS011;2833;50.432;10.706;2022-09-06T04:54:51;7.57;;;6.30;;
5622;SDS011;2833;50.432;10.706;2022-09-06T04:57:16;7.87;;;6.60;;
5622;SDS011;2833;50.432;10.706;2022-09-06T04:59:42;7.90;;;6.43;;
5622;SDS011;2833;50.432;10.706;2022-09-06T05:02:07;6.60;;;6.00;;
5622;SDS011;2833;50.432;10.706;2022-09-06T05:04:32;7.53;;;6.73;;
5622;SDS011;2833;50.432;10.706;2022-09-06T05:07:04;16.23;;;5.80;;
5622;SDS011;2833;50.432;10.706;2022-09-06T05:09:30;10.60;;;7.10;;
5622;SDS011;2833;50.432;10.706;2022-09-06T05:11:56;7.33;;;6.53;;
5622;SDS011;2833;50.432;10.706;2022-09-06T05:14:21;10.80;;;7.20;;
5622;SDS011;2833;50.432;10.706;2022-09-06T05:16:46;7.17;;;6.47;;
5622;SDS011;2833;50.432;10.706;2022-09-06T05:19:11;9.60;;;7.80;;
5622;SDS011;2833;50.432;10.706;2022-09-06T05:21:37;8.50;;;7.20;;
5622;SDS011;2833;50.432;10.706;2022-09-06T05:24:02;7.53;;;6.77;;
5622;SDS011;2833;50.432;10.706;2022-09-06T05:26:27;12.70;;;7.40;;
5622;SDS011;2833;50.432;10.706;2022-09-06T05:28:52;8.63;;;6.90;;
5622;SDS011;2833;50.432;10.706;2022-09-06T05:31:28;9.47;;;7.07;;
5622;SDS011;2833;50.432;10.706;2022-09-06T05:33:53;8.90;;;6.70;;
5622;SDS011;2833;50.432;10.706;2022-09-06T05:36:19;9.87;;;8.10;;
5622;SDS011;2833;50.432;10.706;2022-09-06T05:38:47;7.73;;;6.47;;
5622;SDS011;2833;50.432;10.706;2022-09-06T05:41:12;8.57;;;7.73;;
5622;SDS011;2833;50.432;10.706;2022-09-06T05:43:37;10.47;;;7.73;;
5622;SDS011;2833;50.432;10.706;2022-09-06T05:46:02;11.60;;;8.23;;
5622;SDS011;2833;50.432;10.706;2022-09-06T05:48:27;7.03;;;6.43;;
5622;SDS011;2833;50.432;10.706;2022-09-06T05:51:05;8.60;;;6.93;;
5622;SDS011;2833;50.432;10.706;2022-09-06T05:53:38;8.60;;;6.83;;
5622;SDS011;2833;50.432;10.706;2022-09-06T05:56:04;9.63;;;7.50;;
5622;SDS011;2833;50.432;10.706;2022-09-06T05:58:29;9.67;;;7.83;;
5622;SDS011;2833;50.432;10.706;2022-09-06T06:01:13;7.50;;;6.70;;
5622;SDS011;2833;50.432;10.706;2022-09-06T06:03:38;10.70;;;7.77;;
5622;SDS011;2833;50.432;10.706;2022-09-06T06:06:03;8.43;;;6.97;;
5622;SDS011;2833;50.432;10.706;2022-09-06T06:08:29;10.23;;;7.90;;
5622;SDS011;2833;50.432;10.706;2022-09-06T06:10:57;12.67;;;7.30;;
5622;SDS011;2833;50.432;10.706;2022-09-06T06:13:22;20.50;;;7.60;;
5622;SDS011;2833;50.432;10.706;2022-09-06T06:15:47;10.17;;;9.03;;
5622;SDS011;2833;50.432;10.706;2022-09-06T06:18:12;9.80;;;7.90;;
5622;SDS011;2833;50.432;10.706;2022-09-06T06:20:37;10.73;;;7.50;;
5622;SDS011;2833;50.432;10.706;2022-09-06T06:23:03;10.03;;;8.20;;
5622;SDS011;2833;50.432;10.706;2022-09-06T06:25:28;10.30;;;8.10;;
5622;SDS011;2833;50.432;10.706;2022-09-06T06:27:53;8.27;;;7.43;;
5622;SDS011;2833;50.432;10.706;2022-09-06T06:30:19;9.27;;;8.27;;
5622;SDS011;2833;50.432;10.706;2022-09-06T06:32:44;9.23;;;8.33;;
5622;SDS011;2833;50.432;10.706;2022-09-06T06:35:10;8.93;;;8.03;;
5622;SDS011;2833;50.432;10.706;2022-09-06T06:37:35;13.60;;;8.67;;
5622;SDS011;2833;50.432;10.706;2022-09-06T06:40:00;10.93;;;8.00;;
5622;SDS011;2833;50.432;10.706;2022-09-06T06:42:26;9.03;;;8.10;;
5622;SDS011;2833;50.432;10.706;2022-09-06T06:44:51;13.00;;;8.43;;
5622;SDS011;2833;50.432;10.706;2022-09-06T06:47:19;9.87;;;8.00;;
5622;SDS011;2833;50.432;10.706;2022-09-06T06:49:44;11.27;;;7.30;;
5622;SDS011;2833;50.432;10.706;2022-09-06T06:52:09;9.93;;;8.43;;
5622;SDS011;2833;50.432;10.706;2022-09-06T06:54:34;9.40;;;7.97;;
5622;SDS011;2833;50.432;10.706;2022-09-06T06:57:01;9.33;;;8.33;;
5622;SDS011;2833;50.432;10.706;2022-09-06T06:59:28;10.03;;;8.37;;
5622;SDS011;2833;50.432;10.706;2022-09-06T07:01:53;9.17;;;8.10;;
5622;SDS011;2833;50.432;10.706;2022-09-06T07:04:18;9.23;;;8.00;;
5622;SDS011;2833;50.432;10.706;2022-09-06T07:06:51;8.93;;;7.40;;
5622;SDS011;2833;50.432;10.706;2022-09-06T07:09:17;9.40;;;8.40;;
5622;SDS011;2833;50.432;10.706;2022-09-06T07:11:42;13.00;;;8.10;;
5622;SDS011;2833;50.432;10.706;2022-09-06T07:14:08;8.50;;;7.53;;
5622;SDS011;2833;50.432;10.706;2022-09-06T07:16:33;8.60;;;7.10;;
5622;SDS011;2833;50.432;10.706;2022-09-06T07:18:58;8.47;;;6.70;;
5622;SDS011;2833;50.432;10.706;2022-09-06T07:21:24;8.73;;;7.80;;
5622;SDS011;2833;50.432;10.706;2022-09-06T07:23:53;9.63;;;8.17;;
5622;SDS011;2833;50.432;10.706;2022-09-06T07:26:19;9.10;;;8.00;;
5622;SDS011;2833;50.432;10.706;2022-09-06T07:28:45;9.40;;;7.33;;
5622;SDS011;2833;50.432;10.706;2022-09-06T07:31:10;9.63;;;7.87;;
5622;SDS011;2833;50.432;10.706;2022-09-06T07:33:36;12.87;;;8.00;;
5622;SDS011;2833;50.432;10.706;2022-09-06T07:36:02;8.33;;;7.40;;
5622;SDS011;2833;50.432;10.706;2022-09-06T07:38:28;14.27;;;7.67;;
5622;SDS011;2833;50.432;10.706;2022-09-06T07:40:55;8.80;;;6.53;;
5622;SDS011;2833;50.432;10.706;2022-09-06T07:43:20;6.63;;;6.00;;
5622;SDS011;2833;50.432;10.706;2022-09-06T07:45:45;8.97;;;6.93;;
5622;SDS011;2833;50.432;10.706;2022-09-06T07:48:11;7.87;;;7.10;;
5622;SDS011;2833;50.432;10.706;2022-09-06T07:50:36;12.47;;;7.30;;
5622;SDS011;2833;50.432;10.706;2022-09-06T07:53:05;11.50;;;8.97;;
5622;SDS011;2833;50.432;10.706;2022-09-06T07:55:30;11.57;;;9.00;;
5622;SDS011;2833;50.432;10.706;2022-09-06T07:57:55;17.37;;;8.57;;
5622;SDS011;2833;50.432;10.706;2022-09-06T08:00:21;8.77;;;7.73;;
5622;SDS011;2833;50.432;10.706;2022-09-06T08:02:46;8.70;;;7.50;;
5622;SDS011;2833;50.432;10.706;2022-09-06T08:05:11;9.27;;;7.40;;
5622;SDS011;2833;50.432;10.706;2022-09-06T08:07:36;9.20;;;7.47;;
5622;SDS011;2833;50.432;10.706;2022-09-06T08:10:02;8.37;;;6.57;;
5622;SDS011;2833;50.432;10.706;2022-09-06T08:12:27;8.73;;;7.83;;
5622;SDS011;2833;50.432;10.706;2022-09-06T08:14:53;7.43;;;6.63;;
5622;SDS011;2833;50.432;10.706;2022-09-06T08:17:18;8.90;;;7.67;;
5622;SDS011;2833;50.432;10.706;2022-09-06T08:19:44;8.27;;;7.47;;
5622;SDS011;2833;50.432;10.706;2022-09-06T08:22:09;8.80;;;7.30;;
5622;SDS011;2833;50.432;10.706;2022-09-06T08:24:34;12.27;;;8.33;;
5622;SDS011;2833;50.432;10.706;2022-09-06T08:26:59;10.03;;;8.30;;
5622;SDS011;2833;50.432;10.706;2022-09-06T08:29:25;10.53;;;9.43;;
5622;SDS011;2833;50.432;10.706;2022-09-06T08:31:51;10.50;;;8.87;;
5622;SDS011;2833;50.432;10.706;2022-09-06T08:34:16;12.13;;;8.73;;
5622;SDS011;2833;50.432;10.706;2022-09-06T08:36:41;11.70;;;8.83;;
5622;SDS011;2833;50.432;10.706;2022-09-06T08:39:07;10.23;;;8.60;;
5622;SDS011;2833;50.432;10.706;2022-09-06T08:44:43;12.00;;;8.67;;
5622;SDS011;2833;50.432;10.706;2022-09-06T08:49:14;11.93;;;10.38;;
5622;SDS011;2833;50.432;10.706;2022-09-06T08:57:08;11.30;;;9.90;;
5622;SDS011;2833;50.432;10.706;2022-09-06T08:59:35;14.03;;;10.30;;
5622;SDS011;2833;50.432;10.706;2022-09-06T09:02:38;13.97;;;9.53;;
5622;SDS011;2833;50.432;10.706;2022-09-06T09:04:57;11.77;;;9.80;;
5622;SDS011;2833;50.432;10.706;2022-09-06T09:07:42;10.07;;;9.00;;
5622;SDS011;2833;50.432;10.706;2022-09-06T09:10:15;13.60;;;9.53;;
5622;SDS011;2833;50.432;10.706;2022-09-06T09:12:43;12.20;;;10.00;;
5622;SDS011;2833;50.432;10.706;2022-09-06T09:15:09;18.10;;;10.37;;
5622;SDS011;2833;50.432;10.706;2022-09-06T09:17:36;12.67;;;10.53;;
5622;SDS011;2833;50.432;10.706;2022-09-06T09:20:02;11.80;;;10.10;;
5622;SDS011;2833;50.432;10.706;2022-09-06T09:22:27;14.13;;;11.63;;
5622;SDS011;2833;50.432;10.706;2022-09-06T09:24:52;13.00;;;11.20;;
5622;SDS011;2833;50.432;10.706;2022-09-06T09:27:21;15.83;;;10.87;;
5622;SDS011;2833;50.432;10.706;2022-09-06T09:32:35;28.87;;;11.93;;
5622;SDS011;2833;50.432;10.706;2022-09-06T09:35:14;18.37;;;11.60;;
5622;SDS011;2833;50.432;10.706;2022-09-06T09:37:40;12.90;;;10.30;;
5622;SDS011;2833;50.432;10.706;2022-09-06T09:40:06;13.20;;;10.50;;
5622;SDS011;2833;50.432;10.706;2022-09-06T09:42:36;12.97;;;11.27;;
5622;SDS011;2833;50.432;10.706;2022-09-06T09:45:21;18.63;;;11.93;;
5622;SDS011;2833;50.432;10.706;2022-09-06T09:47:46;12.10;;;9.87;;
5622;SDS011;2833;50.432;10.706;2022-09-06T09:50:26;12.20;;;11.00;;
5622;SDS011;2833;50.432;10.706;2022-09-06T09:52:51;19.43;;;11.03;;
5622;SDS011;2833;50.432;10.706;2022-09-06T09:55:20;11.53;;;10.33;;
5622;SDS011;2833;50.432;10.706;2022-09-06T09:57:46;12.07;;;10.03;;
5622;SDS011;2833;50.432;10.706;2022-09-06T10:00:12;11.60;;;9.33;;
5622;SDS011;2833;50.432;10.706;2022-09-06T10:02:38;13.20;;;10.60;;
5622;SDS011;2833;50.432;10.706;2022-09-06T10:07:33;13.70;;;11.10;;
5622;SDS011;2833;50.432;10.706;2022-09-06T10:12:42;31.27;;;23.53;;
5622;SDS011;2833;50.432;10.706;2022-09-06T10:15:11;55.70;;;36.70;;
5622;SDS011;2833;50.432;10.706;2022-09-06T10:17:37;57.43;;;38.67;;
5622;SDS011;2833;50.432;10.706;2022-09-06T10:20:11;25.20;;;16.60;;
5622;SDS011;2833;50.432;10.706;2022-09-06T10:27:37;32.80;;;24.63;;
5622;SDS011;2833;50.432;10.706;2022-09-06T10:30:07;18.23;;;14.27;;
5622;SDS011;2833;50.432;10.706;2022-09-06T10:33:18;38.40;;;28.67;;
5622;SDS011;2833;50.432;10.706;2022-09-06T10:40:15;19.63;;;16.43;;
5622;SDS011;2833;50.432;10.706;2022-09-06T10:42:46;16.17;;;10.90;;
5622;SDS011;2833;50.432;10.706;2022-09-06T10:50:11;12.23;;;10.40;;
5622;SDS011;2833;50.432;10.706;2022-09-06T10:52:39;11.90;;;10.43;;
5622;SDS011;2833;50.432;10.706;2022-09-06T10:55:07;12.10;;;10.30;;
5622;SDS011;2833;50.432;10.706;2022-09-06T10:57:37;11.13;;;9.93;;
5622;SDS011;2833;50.432;10.706;2022-09-06T11:00:06;13.07;;;10.00;;
5622;SDS011;2833;50.432;10.706;2022-09-06T11:05:30;15.20;;;9.50;;
5622;SDS011;2833;50.432;10.706;2022-09-06T11:08:07;12.27;;;10.03;;
5622;SDS011;2833;50.432;10.706;2022-09-06T11:10:37;12.87;;;10.60;;
5622;SDS011;2833;50.432;10.706;2022-09-06T11:13:17;14.90;;;10.30;;
5622;SDS011;2833;50.432;10.706;2022-09-06T11:20:51;10.73;;;8.30;;
5622;SDS011;2833;50.432;10.706;2022-09-06T11:28:22;11.50;;;10.07;;
5622;SDS011;2833;50.432;10.706;2022-09-06T11:30:52;10.83;;;9.40;;
5622;SDS011;2833;50.432;10.706;2022-09-06T11:33:24;11.97;;;10.77;;
5622;SDS011;2833;50.432;10.706;2022-09-06T11:35:51;11.13;;;9.60;;
5622;SDS011;2833;50.432;10.706;2022-09-06T11:38:21;13.37;;;10.10;;
5622;SDS011;2833;50.432;10.706;2022-09-06T11:40:49;11.30;;;10.20;;
5622;SDS011;2833;50.432;10.706;2022-09-06T11:43:17;11.63;;;9.77;;
5622;SDS011;2833;50.432;10.706;2022-09-06T11:46:01;11.43;;;9.43;;
5622;SDS011;2833;50.432;10.706;2022-09-06T11:53:19;10.53;;;9.03;;
5622;SDS011;2833;50.432;10.706;2022-09-06T11:55:47;13.70;;;8.90;;
5622;SDS011;2833;50.432;10.706;2022-09-06T12:00:41;10.03;;;8.70;;
5622;SDS011;2833;50.432;10.706;2022-09-06T12:03:08;9.83;;;8.63;;
5622;SDS011;2833;50.432;10.706;2022-09-06T12:05:33;11.57;;;8.33;;
5622;SDS011;2833;50.432;10.706;2022-09-06T12:10:59;9.10;;;8.20;;
5622;SDS011;2833;50.432;10.706;2022-09-06T12:13:32;9.50;;;7.60;;
5622;SDS011;2833;50.432;10.706;2022-09-06T12:15:58;8.40;;;7.60;;
5622;SDS011;2833;50.432;10.706;2022-09-06T12:21:09;7.90;;;7.10;;
5622;SDS011;2833;50.432;10.706;2022-09-06T12:23:52;10.47;;;7.23;;
5622;SDS011;2833;50.432;10.706;2022-09-06T12:26:42;8.43;;;7.30;;
5622;SDS011;2833;50.432;10.706;2022-09-06T12:29:02;8.50;;;7.30;;
5622;SDS011;2833;50.432;10.706;2022-09-06T12:31:41;7.33;;;6.57;;
5622;SDS011;2833;50.432;10.706;2022-09-06T12:34:18;7.73;;;6.40;;
5622;SDS011;2833;50.432;10.706;2022-09-06T12:36:45;8.27;;;6.60;;
5622;SDS011;2833;50.432;10.706;2022-09-06T12:39:11;7.07;;;6.37;;
5622;SDS011;2833;50.432;10.706;2022-09-06T12:41:38;9.23;;;6.10;;
5622;SDS011;2833;50.432;10.706;2022-09-06T12:44:04;6.87;;;6.17;;
5622;SDS011;2833;50.432;10.706;2022-09-06T12:46:29;6.57;;;5.50;;
5622;SDS011;2833;50.432;10.706;2022-09-06T12:49:06;6.10;;;5.40;;
5622;SDS011;2833;50.432;10.706;2022-09-06T12:51:31;7.07;;;6.07;;
5622;SDS011;2833;50.432;10.706;2022-09-06T12:53:58;5.37;;;4.87;;
5622;SDS011;2833;50.432;10.706;2022-09-06T12:56:24;5.20;;;4.67;;
5622;SDS011;2833;50.432;10.706;2022-09-06T12:58:50;6.00;;;5.40;;
5622;SDS011;2833;50.432;10.706;2022-09-06T13:01:23;7.23;;;4.10;;
5622;SDS011;2833;50.432;10.706;2022-09-06T13:06:17;5.90;;;5.30;;
5622;SDS011;2833;50.432;10.706;2022-09-06T13:08:53;6.03;;;4.87;;
5622;SDS011;2833;50.432;10.706;2022-09-06T13:11:33;7.33;;;5.57;;
5622;SDS011;2833;50.432;10.706;2022-09-06T13:13:58;5.80;;;5.20;;
5622;SDS011;2833;50.432;10.706;2022-09-06T13:16:25;5.90;;;5.30;;
5622;SDS011;2833;50.432;10.706;2022-09-06T13:18:51;14.13;;;7.30;;
5622;SDS011;2833;50.432;10.706;2022-09-06T13:21:26;6.70;;;5.97;;
5622;SDS011;2833;50.432;10.706;2022-09-06T13:23:52;6.20;;;5.40;;
5622;SDS011;2833;50.432;10.706;2022-09-06T13:26:33;5.63;;;5.07;;
5622;SDS011;2833;50.432;10.706;2022-09-06T13:29:08;5.57;;;5.07;;
5622;SDS011;2833;50.432;10.706;2022-09-06T13:31:34;5.73;;;5.07;;
5622;SDS011;2833;50.432;10.706;2022-09-06T13:33:59;5.27;;;4.77;;
5622;SDS011;2833;50.432;10.706;2022-09-06T13:36:28;5.63;;;4.83;;
5622;SDS011;2833;50.432;10.706;2022-09-06T13:38:56;6.57;;;5.17;;
5622;SDS011;2833;50.432;10.706;2022-09-06T13:43:48;10.80;;;5.33;;
5622;SDS011;2833;50.432;10.706;2022-09-06T13:46:20;16.90;;;11.03;;
5622;SDS011;2833;50.432;10.706;2022-09-06T13:48:46;11.50;;;8.10;;
5622;SDS011;2833;50.432;10.706;2022-09-06T13:51:11;16.10;;;12.87;;
5622;SDS011;2833;50.432;10.706;2022-09-06T13:53:36;12.03;;;10.00;;
5622;SDS011;2833;50.432;10.706;2022-09-06T13:56:01;12.00;;;9.40;;
5622;SDS011;2833;50.432;10.706;2022-09-06T13:58:27;12.10;;;9.20;;
5622;SDS011;2833;50.432;10.706;2022-09-06T14:00:53;12.03;;;9.33;;
5622;SDS011;2833;50.432;10.706;2022-09-06T14:03:29;12.20;;;8.40;;
5622;SDS011;2833;50.432;10.706;2022-09-06T14:05:55;12.90;;;10.47;;
5622;SDS011;2833;50.432;10.706;2022-09-06T14:08:20;5.77;;;5.23;;
5622;SDS011;2833;50.432;10.706;2022-09-06T14:10:45;11.90;;;7.90;;
5622;SDS011;2833;50.432;10.706;2022-09-06T14:13:12;7.03;;;5.40;;
5622;SDS011;2833;50.432;10.706;2022-09-06T14:15:37;8.83;;;6.90;;
5622;SDS011;2833;50.432;10.706;2022-09-06T14:18:02;7.50;;;5.93;;
5622;SDS011;2833;50.432;10.706;2022-09-06T14:20:27;7.37;;;6.60;;
5622;SDS011;2833;50.432;10.706;2022-09-06T14:22:52;6.87;;;6.10;;
5622;SDS011;2833;50.432;10.706;2022-09-06T14:25:18;10.10;;;6.10;;
5622;SDS011;2833;50.432;10.706;2022-09-06T14:27:43;5.60;;;5.10;;
5622;SDS011;2833;50.432;10.706;2022-09-06T14:30:08;5.27;;;4.63;;
5622;SDS011;2833;50.432;10.706;2022-09-06T14:32:34;5.63;;;5.07;;
5622;SDS011;2833;50.432;10.706;2022-09-06T14:34:59;4.37;;;3.97;;
5622;SDS011;2833;50.432;10.706;2022-09-06T14:37:25;6.50;;;5.73;;
5622;SDS011;2833;50.432;10.706;2022-09-06T14:39:51;7.50;;;5.67;;
5622;SDS011;2833;50.432;10.706;2022-09-06T14:42:16;6.87;;;6.10;;
5622;SDS011;2833;50.432;10.706;2022-09-06T14:44:41;5.07;;;4.43;;
5622;SDS011;2833;50.432;10.706;2022-09-06T14:47:06;9.43;;;4.50;;
5622;SDS011;2833;50.432;10.706;2022-09-06T14:49:32;9.60;;;5.03;;
5622;SDS011;2833;50.432;10.706;2022-09-06T14:51:57;5.10;;;4.60;;
5622;SDS011;2833;50.432;10.706;2022-09-06T14:54:22;6.30;;;5.30;;
5622;SDS011;2833;50.432;10.706;2022-09-06T14:56:48;8.30;;;5.53;;
5622;SDS011;2833;50.432;10.706;2022-09-06T14:59:13;5.90;;;5.23;;
5622;SDS011;2833;50.432;10.706;2022-09-06T15:01:38;6.10;;;5.43;;
5622;SDS011;2833;50.432;10.706;2022-09-06T15:04:04;9.43;;;5.40;;
5622;SDS011;2833;50.432;10.706;2022-09-06T15:06:30;10.90;;;4.67;;
5622;SDS011;2833;50.432;10.706;2022-09-06T15:08:57;6.63;;;5.10;;
5622;SDS011;2833;50.432;10.706;2022-09-06T15:11:36;5.30;;;4.80;;
5622;SDS011;2833;50.432;10.706;2022-09-06T15:14:02;5.73;;;5.23;;
5622;SDS011;2833;50.432;10.706;2022-09-06T15:16:28;8.00;;;5.47;;
5622;SDS011;2833;50.432;10.706;2022-09-06T15:18:53;6.90;;;5.40;;
5622;SDS011;2833;50.432;10.706;2022-09-06T15:21:19;7.20;;;5.63;;
5622;SDS011;2833;50.432;10.706;2022-09-06T15:23:45;6.23;;;5.63;;
5622;SDS011;2833;50.432;10.706;2022-09-06T15:26:10;6.00;;;5.40;;
5622;SDS011;2833;50.432;10.706;2022-09-06T15:28:36;5.80;;;4.90;;
5622;SDS011;2833;50.432;10.706;2022-09-06T15:31:03;5.33;;;4.80;;
5622;SDS011;2833;50.432;10.706;2022-09-06T15:33:29;7.20;;;5.87;;
5622;SDS011;2833;50.432;10.706;2022-09-06T15:35:54;7.23;;;5.43;;
5622;SDS011;2833;50.432;10.706;2022-09-06T15:38:19;6.77;;;5.43;;
5622;SDS011;2833;50.432;10.706;2022-09-06T15:40:44;5.47;;;4.97;;
5622;SDS011;2833;50.432;10.706;2022-09-06T15:43:10;10.67;;;5.70;;
5622;SDS011;2833;50.432;10.706;2022-09-06T15:45:44;6.37;;;4.77;;
5622;SDS011;2833;50.432;10.706;2022-09-06T15:48:11;4.63;;;4.23;;
5622;SDS011;2833;50.432;10.706;2022-09-06T15:50:37;4.77;;;4.37;;
5622;SDS011;2833;50.432;10.706;2022-09-06T15:53:03;5.60;;;5.10;;
5622;SDS011;2833;50.432;10.706;2022-09-06T15:55:29;7.30;;;5.23;;
5622;SDS011;2833;50.432;10.706;2022-09-06T15:58:13;7.97;;;4.90;;
5622;SDS011;2833;50.432;10.706;2022-09-06T16:00:38;8.20;;;5.20;;
5622;SDS011;2833;50.432;10.706;2022-09-06T16:03:03;9.97;;;6.93;;
5622;SDS011;2833;50.432;10.706;2022-09-06T16:05:32;5.03;;;4.53;;
5622;SDS011;2833;50.432;10.706;2022-09-06T16:07:57;4.70;;;4.30;;
5622;SDS011;2833;50.432;10.706;2022-09-06T16:10:23;7.13;;;5.17;;
5622;SDS011;2833;50.432;10.706;2022-09-06T16:12:49;5.70;;;4.90;;
5622;SDS011;2833;50.432;10.706;2022-09-06T16:15:15;4.83;;;4.43;;
5622;SDS011;2833;50.432;10.706;2022-09-06T16:17:40;4.77;;;4.30;;
5622;SDS011;2833;50.432;10.706;2022-09-06T16:20:05;4.67;;;4.27;;
5622;SDS011;2833;50.432;10.706;2022-09-06T16:22:30;5.50;;;4.90;;
5622;SDS011;2833;50.432;10.706;2022-09-06T16:24:56;4.90;;;4.43;;
5622;SDS011;2833;50.432;10.706;2022-09-06T16:27:21;5.90;;;4.73;;